Time,TemperatureF,DewpointF,PressureIn,WindDirection,WindDirectionDegrees,WindSpeedMPH,WindSpeedGustMPH,Humidity,HourlyPrecipIn,Conditions,Clouds,dailyrainin,SoftwareType,DateUTC
2013-02-25 00:00:00,23.9,8.0,29.79,West,262,2.0,10.0,52,0.00,,,0.00,weatherlink.com 1.10,2013-02-25 07:00:00,
2013-02-25 00:15:00,23.4,8.0,29.80,WSW,258,2.0,6.0,52,0.00,,,0.00,weatherlink.com 1.10,2013-02-25 07:15:00,
2013-02-25 00:30:00,22.9,9.0,29.81,WSW,238,9.0,11.0,56,0.00,,,0.00,weatherlink.com 1.10,2013-02-25 07:30:00,
2013-02-25 00:45:00,22.1,10.0,29.81,SW,229,3.0,7.0,59,0.00,,,0.00,weatherlink.com 1.10,2013-02-25 07:45:00,
2013-02-25 01:01:00,21.8,9.0,29.82,SW,229,3.0,7.0,59,0.00,,,0.00,weatherlink.com 1.10,2013-02-25 08:01:00,
2013-02-25 01:16:00,21.6,10.0,29.82,SW,227,2.0,5.0,60,0.00,,,0.00,weatherlink.com 1.10,2013-02-25 08:16:00,
2013-02-25 01:31:00,21.2,10.0,29.83,SW,228,1.0,6.0,61,0.00,,,0.00,weatherlink.com 1.10,2013-02-25 08:31:00,
2013-02-25 01:46:00,20.8,10.0,29.84,SW,227,0.0,6.0,63,0.00,,,0.00,weatherlink.com 1.10,2013-02-25 08:46:00,
2013-02-25 02:01:00,20.4,10.0,29.84,SSW,209,4.0,8.0,63,0.00,,,0.00,weatherlink.com 1.10,2013-02-25 09:01:00,
2013-02-25 02:16:00,20.4,10.0,29.84,SSW,194,2.0,8.0,63,0.00,,,0.00,weatherlink.com 1.10,2013-02-25 09:16:00,
2013-02-25 02:31:00,20.3,9.0,29.85,South,179,5.0,12.0,63,0.00,,,0.00,weatherlink.com 1.10,2013-02-25 09:31:00,
2013-02-25 02:46:00,20.2,9.0,29.85,South,176,6.0,12.0,62,0.00,,,0.00,weatherlink.com 1.10,2013-02-25 09:46:00,
2013-02-25 03:01:00,20.0,9.0,29.86,South,171,3.0,10.0,62,0.00,,,0.00,weatherlink.com 1.10,2013-02-25 10:01:00,
2013-02-25 03:16:00,19.7,9.0,29.86,South,178,3.0,11.0,63,0.00,,,0.00,weatherlink.com 1.10,2013-02-25 10:16:00,
2013-02-25 03:31:00,19.1,9.0,29.87,South,178,3.0,6.0,64,0.00,,,0.00,weatherlink.com 1.10,2013-02-25 10:31:00,
2013-02-25 03:46:00,18.6,8.0,29.87,South,178,4.0,9.0,64,0.00,,,0.00,weatherlink.com 1.10,2013-02-25 10:46:00,
2013-02-25 04:01:00,18.1,8.0,29.88,South,175,2.0,6.0,64,0.00,,,0.00,weatherlink.com 1.10,2013-02-25 11:01:00,
2013-02-25 04:16:00,17.8,9.0,29.89,South,179,0.0,10.0,67,0.00,,,0.00,weatherlink.com 1.10,2013-02-25 11:16:00,
2013-02-25 04:31:00,16.9,8.0,29.89,South,179,3.0,4.0,68,0.00,,,0.00,weatherlink.com 1.10,2013-02-25 11:31:00,
2013-02-25 04:46:00,16.7,8.0,29.91,South,179,5.0,7.0,69,0.00,,,0.00,weatherlink.com 1.10,2013-02-25 11:46:00,
2013-02-25 05:02:00,16.5,8.0,29.92,South,179,3.0,7.0,69,0.00,,,0.00,weatherlink.com 1.10,2013-02-25 12:02:00,
2013-02-25 05:17:00,16.1,8.0,29.94,South,180,2.0,6.0,71,0.00,,,0.00,weatherlink.com 1.10,2013-02-25 12:17:00,
2013-02-25 05:32:00,16.0,8.0,29.95,South,181,1.0,9.0,70,0.00,,,0.00,weatherlink.com 1.10,2013-02-25 12:32:00,
2013-02-25 05:47:00,15.7,7.0,29.96,South,182,1.0,6.0,69,0.00,,,0.00,weatherlink.com 1.10,2013-02-25 12:47:00,
2013-02-25 06:02:00,15.5,7.0,29.96,South,183,3.0,7.0,69,0.00,,,0.00,weatherlink.com 1.10,2013-02-25 13:02:00,
2013-02-25 06:17:00,15.1,7.0,29.97,South,190,0.0,9.0,69,0.00,,,0.00,weatherlink.com 1.10,2013-02-25 13:17:00,
2013-02-25 06:32:00,14.5,6.0,29.98,South,190,2.0,6.0,70,0.00,,,0.00,weatherlink.com 1.10,2013-02-25 13:32:00,
2013-02-25 06:47:00,14.0,6.0,29.99,South,190,3.0,4.0,70,0.00,,,0.00,weatherlink.com 1.10,2013-02-25 13:47:00,
2013-02-25 07:17:00,15.0,7.0,30.00,South,178,5.0,7.0,69,0.00,,,0.00,weatherlink.com 1.10,2013-02-25 14:17:00,
2013-02-25 07:33:00,15.0,7.0,30.00,South,179,2.0,7.0,69,0.00,,,0.00,weatherlink.com 1.10,2013-02-25 14:33:00,
2013-02-25 07:48:00,16.6,8.0,30.01,South,180,1.0,5.0,69,0.00,,,0.00,weatherlink.com 1.10,2013-02-25 14:48:00,
2013-02-25 08:03:00,19.4,9.0,30.02,South,176,5.0,7.0,63,0.00,,,0.00,weatherlink.com 1.10,2013-02-25 15:03:00,
2013-02-25 08:18:00,20.7,9.0,30.03,South,178,2.0,6.0,60,0.00,,,0.00,weatherlink.com 1.10,2013-02-25 15:18:00,
2013-02-25 08:33:00,21.6,8.0,30.02,South,176,4.0,9.0,57,0.00,,,0.00,weatherlink.com 1.10,2013-02-25 15:33:00,
2013-02-25 08:48:00,23.0,9.0,30.02,South,178,0.0,8.0,55,0.00,,,0.00,weatherlink.com 1.10,2013-02-25 15:48:00,
2013-02-25 09:03:00,23.9,8.0,30.03,South,179,2.0,6.0,52,0.00,,,0.00,weatherlink.com 1.10,2013-02-25 16:03:00,
2013-02-25 09:18:00,24.6,8.0,30.04,South,181,3.0,7.0,50,0.00,,,0.00,weatherlink.com 1.10,2013-02-25 16:18:00,
2013-02-25 09:33:00,25.4,8.0,30.04,SSW,209,3.0,7.0,47,0.00,,,0.00,weatherlink.com 1.10,2013-02-25 16:33:00,
2013-02-25 09:48:00,26.9,8.0,30.04,NW,319,5.0,10.0,44,0.00,,,0.00,weatherlink.com 1.10,2013-02-25 16:48:00,
2013-02-25 10:03:00,28.0,8.0,30.04,WSW,257,2.0,12.0,43,0.00,,,0.00,weatherlink.com 1.10,2013-02-25 17:03:00,
2013-02-25 10:18:00,29.7,9.0,30.04,NNW,339,2.0,9.0,41,0.00,,,0.00,weatherlink.com 1.10,2013-02-25 17:18:00,
2013-02-25 10:33:00,30.2,7.0,30.03,NW,324,7.0,10.0,37,0.00,,,0.00,weatherlink.com 1.10,2013-02-25 17:33:00,
2013-02-25 10:48:00,30.4,7.0,30.03,NW,322,0.0,10.0,37,0.00,,,0.00,weatherlink.com 1.10,2013-02-25 17:48:00,
2013-02-25 11:03:00,31.5,10.0,30.04,West,278,7.0,9.0,40,0.00,,,0.00,weatherlink.com 1.10,2013-02-25 18:03:00,
2013-02-25 11:18:00,31.6,10.0,30.03,WSW,246,8.0,11.0,40,0.00,,,0.00,weatherlink.com 1.10,2013-02-25 18:18:00,
2013-02-25 11:33:00,32.6,9.0,30.03,West,272,10.0,12.0,37,0.00,,,0.00,weatherlink.com 1.10,2013-02-25 18:33:00,
2013-02-25 11:48:00,32.8,8.0,30.02,West,271,10.0,14.0,35,0.00,,,0.00,weatherlink.com 1.10,2013-02-25 18:48:00,
2013-02-25 12:03:00,33.4,7.0,30.01,NW,317,3.0,9.0,33,0.00,,,0.00,weatherlink.com 1.10,2013-02-25 19:03:00,
2013-02-25 12:18:00,34.2,8.0,30.00,WNW,296,6.0,12.0,33,0.00,,,0.00,weatherlink.com 1.10,2013-02-25 19:18:00,
2013-02-25 12:33:00,34.8,8.0,30.00,NW,324,0.0,10.0,32,0.00,,,0.00,weatherlink.com 1.10,2013-02-25 19:33:00,
2013-02-25 12:48:00,34.7,9.0,29.99,West,273,7.0,10.0,34,0.00,,,0.00,weatherlink.com 1.10,2013-02-25 19:48:00,
2013-02-25 13:03:00,35.1,9.0,29.99,WNW,290,5.0,12.0,33,0.00,,,0.00,weatherlink.com 1.10,2013-02-25 20:03:00,
2013-02-25 13:18:00,35.7,9.0,29.98,West,271,8.0,16.0,33,0.00,,,0.00,weatherlink.com 1.10,2013-02-25 20:18:00,
2013-02-25 13:33:00,37.1,10.0,29.97,West,267,6.0,10.0,32,0.00,,,0.00,weatherlink.com 1.10,2013-02-25 20:33:00,
2013-02-25 13:48:00,37.5,8.0,29.96,NW,321,3.0,13.0,29,0.00,,,0.00,weatherlink.com 1.10,2013-02-25 20:48:00,
2013-02-25 14:03:00,38.0,10.0,29.96,West,276,5.0,10.0,31,0.00,,,0.00,weatherlink.com 1.10,2013-02-25 21:03:00,
2013-02-25 14:18:00,37.6,8.0,29.96,NNW,329,8.0,13.0,29,0.00,,,0.00,weatherlink.com 1.10,2013-02-25 21:18:00,
2013-02-25 14:33:00,37.2,10.0,29.95,West,267,6.0,12.0,32,0.00,,,0.00,weatherlink.com 1.10,2013-02-25 21:33:00,
2013-02-25 14:48:00,37.5,9.0,29.95,West,268,3.0,10.0,30,0.00,,,0.00,weatherlink.com 1.10,2013-02-25 21:48:00,
2013-02-25 15:03:00,38.0,9.0,29.95,West,260,6.0,11.0,30,0.00,,,0.00,weatherlink.com 1.10,2013-02-25 22:03:00,
2013-02-25 15:18:00,38.7,8.0,29.94,WSW,257,4.0,10.0,28,0.00,,,0.00,weatherlink.com 1.10,2013-02-25 22:18:00,
2013-02-25 15:33:00,38.5,7.0,29.94,West,267,2.0,16.0,27,0.00,,,0.00,weatherlink.com 1.10,2013-02-25 22:33:00,
2013-02-25 15:48:00,38.6,9.0,29.93,West,259,5.0,7.0,29,0.00,,,0.00,weatherlink.com 1.10,2013-02-25 22:48:00,
2013-02-25 16:03:00,38.6,10.0,29.93,West,265,5.0,11.0,30,0.00,,,0.00,weatherlink.com 1.10,2013-02-25 23:03:00,
2013-02-25 16:18:00,38.6,8.0,29.93,West,260,5.0,10.0,28,0.00,,,0.00,weatherlink.com 1.10,2013-02-25 23:18:00,
2013-02-25 16:33:00,38.8,9.0,29.92,West,261,1.0,7.0,29,0.00,,,0.00,weatherlink.com 1.10,2013-02-25 23:33:00,
2013-02-25 16:49:00,38.8,9.0,29.92,West,263,0.0,5.0,29,0.00,,,0.00,weatherlink.com 1.10,2013-02-25 23:49:00,
2013-02-25 17:03:00,38.4,9.0,29.92,WSW,257,2.0,6.0,29,0.00,,,0.00,weatherlink.com 1.10,2013-02-26 00:03:00,
2013-02-25 17:18:00,38.5,9.0,29.91,WSW,258,2.0,3.0,29,0.00,,,0.00,weatherlink.com 1.10,2013-02-26 00:18:00,
2013-02-25 17:33:00,38.4,9.0,29.91,WSW,258,0.0,1.0,29,0.00,,,0.00,weatherlink.com 1.10,2013-02-26 00:33:00,
2013-02-25 17:48:00,37.6,10.0,29.91,WSW,257,0.0,2.0,32,0.00,,,0.00,weatherlink.com 1.10,2013-02-26 00:48:00,
2013-02-25 18:03:00,31.4,9.0,29.91,WSW,258,1.0,3.0,39,0.00,,,0.00,weatherlink.com 1.10,2013-02-26 01:03:00,
2013-02-25 18:18:00,28.5,9.0,29.91,WSW,256,2.0,4.0,44,0.00,,,0.00,weatherlink.com 1.10,2013-02-26 01:18:00,
2013-02-25 18:33:00,27.8,9.0,29.91,WSW,252,0.0,5.0,45,0.00,,,0.00,weatherlink.com 1.10,2013-02-26 01:33:00,
2013-02-25 18:48:00,27.4,9.0,29.91,WSW,252,0.0,4.0,46,0.00,,,0.00,weatherlink.com 1.10,2013-02-26 01:48:00,
2013-02-25 19:03:00,29.3,9.0,29.92,WSW,250,2.0,7.0,43,0.00,,,0.00,weatherlink.com 1.10,2013-02-26 02:03:00,
2013-02-25 19:18:00,30.2,10.0,29.92,SSW,198,4.0,8.0,42,0.00,,,0.00,weatherlink.com 1.10,2013-02-26 02:18:00,
2013-02-25 19:33:00,30.7,10.0,29.93,SSW,204,1.0,10.0,42,0.00,,,0.00,weatherlink.com 1.10,2013-02-26 02:33:00,
2013-02-25 19:48:00,30.9,10.0,29.93,SW,221,3.0,13.0,41,0.00,,,0.00,weatherlink.com 1.10,2013-02-26 02:48:00,
2013-02-25 20:03:00,30.7,10.0,29.94,SW,221,5.0,11.0,42,0.00,,,0.00,weatherlink.com 1.10,2013-02-26 03:03:00,
2013-02-25 20:19:00,30.3,10.0,29.94,SSW,211,3.0,10.0,42,0.00,,,0.00,weatherlink.com 1.10,2013-02-26 03:19:00,
2013-02-25 20:34:00,29.5,9.0,29.93,SSW,207,3.0,5.0,43,0.00,,,0.00,weatherlink.com 1.10,2013-02-26 03:34:00,
2013-02-25 20:49:00,28.0,10.0,29.93,SSW,206,2.0,3.0,46,0.00,,,0.00,weatherlink.com 1.10,2013-02-26 03:49:00,
2013-02-25 21:04:00,27.5,9.0,29.93,SSW,207,0.0,4.0,46,0.00,,,0.00,weatherlink.com 1.10,2013-02-26 04:04:00,
2013-02-25 21:19:00,27.2,9.0,29.93,SSW,207,1.0,5.0,47,0.00,,,0.00,weatherlink.com 1.10,2013-02-26 04:19:00,
2013-02-25 21:34:00,26.9,9.0,29.94,SSW,207,3.0,5.0,48,0.00,,,0.00,weatherlink.com 1.10,2013-02-26 04:34:00,
2013-02-25 21:49:00,26.7,9.0,29.94,SSW,203,0.0,6.0,48,0.00,,,0.00,weatherlink.com 1.10,2013-02-26 04:49:00,
2013-02-25 22:04:00,26.0,9.0,29.94,SSW,203,0.0,1.0,48,0.00,,,0.00,weatherlink.com 1.10,2013-02-26 05:04:00,
2013-02-25 22:19:00,24.3,9.0,29.93,SSW,204,0.0,2.0,52,0.00,,,0.00,weatherlink.com 1.10,2013-02-26 05:19:00,
2013-02-25 22:34:00,24.0,9.0,29.93,SSW,203,4.0,6.0,53,0.00,,,0.00,weatherlink.com 1.10,2013-02-26 05:34:00,
2013-02-25 22:49:00,25.3,9.0,29.93,SSW,204,0.0,4.0,51,0.00,,,0.00,weatherlink.com 1.10,2013-02-26 05:49:00,
2013-02-25 23:04:00,25.1,9.0,29.92,SSW,204,0.0,5.0,51,0.00,,,0.00,weatherlink.com 1.10,2013-02-26 06:04:00,
2013-02-25 23:19:00,25.7,10.0,29.92,SSW,202,3.0,7.0,51,0.00,,,0.00,weatherlink.com 1.10,2013-02-26 06:19:00,
2013-02-25 23:34:00,25.6,10.0,29.92,SSW,200,3.0,6.0,52,0.00,,,0.00,weatherlink.com 1.10,2013-02-26 06:34:00,
2013-02-25 23:49:00,25.3,10.0,29.91,SSW,195,6.0,7.0,53,0.00,,,0.00,weatherlink.com 1.10,2013-02-26 06:49:00,